createdAt,value
2023-03-11T00:01:06.054Z,2.10
2023-03-11T00:03:33.592Z,2.10
2023-03-11T00:06:01.106Z,2.10
2023-03-11T00:08:28.681Z,2.00
2023-03-11T00:10:56.982Z,2.00
2023-03-11T00:13:24.518Z,2.00
2023-03-11T00:15:52.121Z,2.00
2023-03-11T00:18:19.650Z,2.00
2023-03-11T00:20:47.946Z,1.90
2023-03-11T00:23:15.644Z,1.90
2023-03-11T00:25:43.157Z,1.90
2023-03-11T00:28:13.256Z,1.80
2023-03-11T00:30:41.678Z,1.80
2023-03-11T00:33:09.129Z,1.80
2023-03-11T00:35:36.649Z,1.80
2023-03-11T00:38:15.175Z,1.80
2023-03-11T00:40:42.691Z,1.70
2023-03-11T00:43:10.214Z,2.00
2023-03-11T00:45:37.791Z,2.00
2023-03-11T00:48:05.316Z,1.90
2023-03-11T00:50:32.833Z,1.80
2023-03-11T00:53:00.444Z,1.80
2023-03-11T00:55:28.694Z,1.90
2023-03-11T00:57:56.988Z,1.90
2023-03-11T01:00:24.642Z,1.90
2023-03-11T01:02:52.155Z,1.80
2023-03-11T01:05:19.698Z,1.70
2023-03-11T01:07:47.246Z,1.60
2023-03-11T01:10:14.781Z,1.60
2023-03-11T01:12:42.317Z,1.50
2023-03-11T01:15:10.704Z,1.40
2023-03-11T01:17:38.985Z,1.40
2023-03-11T01:20:07.320Z,1.30
2023-03-11T01:22:34.908Z,1.30
2023-03-11T01:25:03.189Z,1.50
2023-03-11T01:27:31.487Z,1.50
2023-03-11T01:29:59.061Z,1.50
2023-03-11T01:32:26.627Z,1.40
2023-03-11T01:34:54.135Z,1.40
2023-03-11T01:37:22.474Z,1.30
2023-03-11T01:39:49.989Z,1.30
2023-03-11T01:42:17.523Z,1.30
2023-03-11T01:44:45.066Z,1.30
2023-03-11T01:47:12.603Z,1.30
2023-03-11T01:49:40.147Z,1.30
2023-03-11T01:52:10.475Z,1.50
2023-03-11T01:54:38.011Z,1.50
2023-03-11T01:57:08.243Z,1.40
2023-03-11T01:59:39.027Z,1.60
2023-03-11T02:02:12.253Z,1.60
2023-03-11T02:04:39.782Z,1.50
2023-03-11T02:07:07.372Z,1.40
2023-03-11T02:09:34.916Z,1.40
2023-03-11T02:12:03.235Z,1.30
2023-03-11T02:14:30.804Z,1.30
2023-03-11T02:16:58.347Z,1.20
2023-03-11T02:20:03.255Z,1.20
2023-03-11T02:22:31.548Z,1.10
2023-03-11T02:25:10.919Z,1.10
2023-03-11T02:27:38.460Z,1.00
2023-03-11T02:30:06.124Z,1.00
2023-03-11T02:32:33.753Z,1.00
2023-03-11T02:35:01.279Z,0.90
2023-03-11T02:37:28.803Z,0.90
2023-03-11T02:39:57.171Z,0.90
2023-03-11T02:42:24.737Z,1.10
2023-03-11T02:44:54.742Z,1.10
2023-03-11T02:47:22.349Z,1.00
2023-03-11T02:49:49.871Z,1.00
2023-03-11T02:52:17.392Z,0.90
2023-03-11T02:54:45.712Z,0.90
2023-03-11T02:57:13.249Z,0.80
2023-03-11T02:59:40.772Z,0.80
2023-03-11T03:02:08.375Z,0.80
2023-03-11T03:04:36.015Z,0.80
2023-03-11T03:07:03.483Z,0.70
2023-03-11T03:09:31.089Z,0.70
2023-03-11T03:11:58.641Z,0.70
2023-03-11T03:14:26.177Z,0.60
2023-03-11T03:16:53.761Z,0.80
2023-03-11T03:19:21.273Z,0.80
2023-03-11T03:21:49.571Z,0.70
2023-03-11T03:24:17.148Z,0.60
2023-03-11T03:26:44.677Z,0.60
2023-03-11T03:29:12.215Z,0.60
2023-03-11T03:31:40.537Z,0.50
2023-03-11T03:34:08.040Z,0.50
2023-03-11T03:36:35.563Z,0.50
2023-03-11T03:39:03.149Z,0.50
2023-03-11T03:41:30.675Z,0.50
2023-03-11T03:43:58.209Z,0.50
2023-03-11T03:46:25.833Z,0.50
2023-03-11T03:48:53.289Z,0.50
2023-03-11T03:51:21.591Z,0.50
2023-03-11T03:53:49.165Z,0.40
2023-03-11T03:56:16.690Z,0.50
2023-03-11T03:58:44.995Z,0.40
2023-03-11T04:01:12.612Z,0.40
2023-03-11T04:03:40.212Z,0.40
2023-03-11T04:06:10.319Z,0.40
2023-03-11T04:08:38.649Z,0.40
2023-03-11T04:11:06.176Z,0.30
2023-03-11T04:13:33.711Z,0.30
2023-03-11T04:16:02.047Z,0.20
2023-03-11T04:18:29.572Z,0.20
2023-03-11T04:20:57.119Z,0.20
2023-03-11T04:23:25.467Z,0.20
2023-03-11T04:25:53.038Z,0.10
2023-03-11T04:28:20.617Z,0.20
2023-03-11T04:30:48.983Z,0.40
2023-03-11T04:33:16.428Z,0.40
2023-03-11T04:35:44.796Z,0.90
2023-03-11T04:38:12.310Z,0.90
2023-03-11T04:40:39.836Z,0.90
2023-03-11T04:43:07.380Z,0.80
2023-03-11T04:45:35.003Z,0.70
2023-03-11T04:48:02.508Z,0.60
2023-03-11T04:50:30.802Z,0.50
2023-03-11T04:52:58.386Z,0.50
2023-03-11T04:55:25.946Z,0.50
2023-03-11T04:57:53.452Z,0.50
2023-03-11T05:00:21.776Z,0.40
2023-03-11T05:02:49.323Z,0.40
2023-03-11T05:05:16.856Z,0.40
2023-03-11T05:07:45.211Z,0.40
2023-03-11T05:10:12.751Z,0.40
2023-03-11T05:12:40.279Z,0.60
2023-03-11T05:15:08.010Z,0.60
2023-03-11T05:17:35.543Z,0.50
2023-03-11T05:20:03.101Z,0.50
2023-03-11T05:22:30.642Z,0.50
2023-03-11T05:24:58.178Z,0.50
2023-03-11T05:27:25.695Z,0.40
2023-03-11T05:29:54.365Z,0.40
2023-03-11T05:32:21.877Z,0.40
2023-03-11T05:34:49.380Z,0.40
2023-03-11T05:37:17.531Z,0.40
2023-03-11T05:39:45.035Z,0.50
2023-03-11T05:42:14.590Z,0.70
2023-03-11T05:44:41.001Z,0.70
2023-03-11T05:47:08.517Z,0.70
2023-03-11T05:49:36.046Z,0.70
2023-03-11T05:52:03.637Z,0.60
2023-03-11T05:54:31.149Z,0.60
2023-03-11T05:56:58.684Z,0.50
2023-03-11T05:59:26.257Z,0.70
2023-03-11T06:01:53.781Z,0.70
2023-03-11T06:04:22.174Z,0.40
2023-03-11T06:06:49.657Z,0.40
2023-03-11T06:09:17.195Z,0.40
2023-03-11T06:11:45.474Z,0.20
2023-03-11T06:14:13.909Z,0.20
2023-03-11T06:16:41.454Z,0.20
2023-03-11T06:19:09.422Z,0.20
2023-03-11T06:21:36.983Z,0.40
2023-03-11T06:24:04.516Z,0.30
2023-03-11T06:26:32.046Z,0.30
2023-03-11T06:29:00.395Z,0.20
2023-03-11T06:31:27.979Z,0.20
2023-03-11T06:33:58.119Z,0.10
2023-03-11T06:36:25.732Z,0.10
2023-03-11T06:38:53.250Z,0.10
2023-03-11T06:41:20.791Z,0.10
2023-03-11T06:43:49.205Z,0.10
2023-03-11T06:46:19.925Z,0.20
2023-03-11T06:48:47.367Z,0.20
2023-03-11T06:51:15.687Z,0.30
2023-03-11T06:53:43.206Z,0.20
2023-03-11T06:56:13.554Z,0.30
2023-03-11T06:58:41.129Z,0.30
2023-03-11T07:01:08.738Z,0.30
2023-03-11T07:03:36.187Z,0.40
2023-03-11T07:06:06.499Z,0.60
2023-03-11T07:08:31.397Z,0.60
2023-03-11T07:11:08.156Z,0.70
2023-03-11T07:13:35.689Z,0.70
2023-03-11T07:16:05.791Z,0.70
2023-03-11T07:18:33.296Z,0.70
2023-03-11T07:21:00.837Z,0.70
2023-03-11T07:23:28.363Z,0.80
2023-03-11T07:25:56.428Z,0.80
2023-03-11T07:28:23.963Z,1.10
2023-03-11T07:30:52.268Z,1.20
2023-03-11T07:33:19.841Z,1.20
2023-03-11T07:35:47.411Z,1.20
2023-03-11T07:38:14.898Z,1.30
2023-03-11T07:40:42.487Z,1.30
2023-03-11T07:43:10.026Z,1.40
2023-03-11T07:45:38.348Z,1.70
2023-03-11T07:48:06.915Z,1.70
2023-03-11T07:50:34.442Z,1.70
2023-03-11T07:53:02.735Z,1.80
2023-03-11T07:55:30.315Z,1.80
2023-03-11T07:57:57.849Z,1.90
2023-03-11T08:00:25.416Z,1.90
2023-03-11T08:02:53.734Z,2.00
2023-03-11T08:05:21.275Z,2.00
2023-03-11T08:07:48.800Z,2.10
2023-03-11T08:10:17.187Z,2.50
2023-03-11T08:12:44.709Z,2.40
2023-03-11T08:15:12.262Z,2.50
2023-03-11T08:17:40.211Z,2.60
2023-03-11T08:20:08.003Z,2.60
2023-03-11T08:22:36.903Z,2.80
2023-03-11T08:25:03.159Z,2.90
2023-03-11T08:27:30.694Z,2.90
2023-03-11T08:29:59.017Z,3.20
2023-03-11T08:32:26.680Z,3.20
2023-03-11T08:34:54.156Z,3.20
2023-03-11T08:37:24.270Z,3.10
2023-03-11T08:39:49.550Z,3.30
2023-03-11T08:42:17.067Z,3.40
2023-03-11T08:44:44.600Z,3.30
2023-03-11T08:47:12.173Z,3.30
2023-03-11T08:49:39.721Z,3.30
2023-03-11T08:52:07.252Z,3.30
2023-03-11T08:54:34.827Z,3.30
2023-03-11T08:57:02.351Z,3.50
2023-03-11T08:59:29.886Z,3.50
2023-03-11T09:01:58.218Z,3.60
2023-03-11T09:04:25.761Z,3.50
2023-03-11T09:06:53.283Z,3.60
2023-03-11T09:09:21.618Z,3.70
2023-03-11T09:11:49.143Z,3.60
2023-03-11T09:14:16.676Z,3.70
2023-03-11T09:16:45.031Z,4.00
2023-03-11T09:19:12.558Z,4.00
2023-03-11T09:21:40.093Z,4.00
2023-03-11T09:24:07.655Z,4.10
2023-03-11T09:26:35.180Z,4.10
2023-03-11T09:29:03.471Z,4.30
2023-03-11T09:31:31.841Z,4.40
2023-03-11T09:33:59.355Z,4.30
2023-03-11T09:36:26.865Z,4.40
2023-03-11T09:38:55.208Z,4.50
2023-03-11T09:41:57.478Z,4.50
2023-03-11T09:44:38.666Z,4.50
2023-03-11T09:47:30.319Z,4.50
2023-03-11T09:50:09.828Z,4.60
2023-03-11T09:52:43.063Z,4.80
2023-03-11T09:55:13.345Z,5.20
2023-03-11T09:57:40.937Z,5.40
2023-03-11T10:00:08.827Z,5.40
2023-03-11T10:02:36.480Z,5.60
2023-03-11T10:05:04.704Z,5.60
2023-03-11T10:07:32.246Z,5.60
2023-03-11T10:09:59.746Z,5.60
2023-03-11T10:12:49.573Z,5.70
2023-03-11T10:15:29.742Z,5.70
2023-03-11T10:18:06.257Z,5.70
2023-03-11T10:20:46.606Z,5.80
2023-03-11T10:23:20.755Z,5.70
2023-03-11T10:25:57.629Z,5.70
2023-03-11T10:28:32.004Z,5.60
2023-03-11T10:31:02.218Z,5.60
2023-03-11T10:33:38.597Z,5.50
2023-03-11T10:36:11.874Z,5.50
2023-03-11T10:38:42.416Z,5.70
2023-03-11T10:41:18.489Z,5.80
2023-03-11T10:43:49.860Z,5.90
2023-03-11T10:46:20.308Z,5.90
2023-03-11T10:48:47.846Z,6.00
2023-03-11T10:51:21.595Z,6.10
2023-03-11T10:53:51.766Z,6.30
2023-03-11T10:56:28.027Z,6.30
2023-03-11T10:58:55.550Z,6.60
2023-03-11T11:01:23.094Z,6.60
2023-03-11T11:03:50.702Z,6.50
2023-03-11T11:06:33.324Z,6.50
2023-03-11T11:09:18.685Z,6.50
2023-03-11T11:12:02.099Z,6.40
2023-03-11T11:14:47.755Z,6.30
2023-03-11T11:17:17.982Z,6.20
2023-03-11T11:19:45.512Z,6.20
2023-03-11T11:22:13.350Z,6.10
2023-03-11T11:24:41.651Z,6.10
2023-03-11T11:27:12.090Z,6.10
2023-03-11T11:29:39.667Z,6.20
2023-03-11T11:32:15.930Z,6.20
2023-03-11T11:34:43.483Z,6.20
2023-03-11T11:37:11.017Z,6.20
2023-03-11T11:39:50.112Z,6.30
2023-03-11T11:42:17.632Z,6.30
2023-03-11T11:44:45.164Z,6.30
2023-03-11T11:47:12.740Z,6.30
2023-03-11T11:49:40.290Z,6.40
2023-03-11T11:52:13.485Z,6.50
2023-03-11T11:54:41.059Z,6.60
2023-03-11T11:57:11.319Z,6.60
2023-03-11T11:59:39.613Z,6.80
2023-03-11T12:02:21.968Z,6.80
2023-03-11T12:05:10.421Z,6.80
2023-03-11T12:07:55.986Z,6.90
2023-03-11T12:10:38.220Z,7.20
2023-03-11T12:13:27.988Z,7.40
2023-03-11T12:16:01.309Z,7.40
2023-03-11T12:18:50.356Z,7.40
2023-03-11T12:21:23.741Z,7.40
2023-03-11T12:23:57.146Z,7.60
2023-03-11T12:26:24.701Z,7.60
2023-03-11T12:29:15.723Z,7.60
2023-03-11T12:31:40.752Z,7.60
2023-03-11T12:34:08.204Z,7.50
2023-03-11T12:36:35.790Z,7.70
2023-03-11T12:39:03.310Z,7.70
2023-03-11T12:41:31.655Z,7.80
2023-03-11T12:43:59.487Z,7.80
2023-03-11T12:46:45.340Z,7.70
2023-03-11T12:49:12.874Z,7.70
2023-03-11T12:51:40.412Z,7.80
2023-03-11T12:54:35.232Z,8.10
2023-03-11T12:57:17.914Z,8.20
2023-03-11T13:00:22.692Z,8.30
2023-03-11T13:02:59.059Z,8.30
2023-03-11T13:05:51.350Z,8.40
2023-03-11T13:08:37.068Z,8.40
2023-03-11T13:11:04.632Z,8.40
2023-03-11T13:13:34.746Z,8.40
2023-03-11T13:16:14.330Z,8.40
2023-03-11T13:18:41.790Z,8.50
2023-03-11T13:21:27.750Z,8.70
2023-03-11T13:24:20.007Z,8.70
2023-03-11T13:27:01.830Z,8.60
2023-03-11T13:29:49.627Z,8.70
2023-03-11T13:32:41.427Z,8.60
2023-03-11T13:35:23.869Z,8.50
2023-03-11T13:38:22.776Z,8.60
2023-03-11T13:40:50.302Z,8.60
2023-03-11T13:43:17.825Z,8.50
2023-03-11T13:45:54.341Z,8.40
2023-03-11T13:48:21.871Z,8.30
2023-03-11T13:50:49.400Z,8.30
2023-03-11T13:53:26.041Z,8.50
2023-03-11T13:55:53.581Z,8.50
2023-03-11T13:58:24.000Z,8.40
2023-03-11T14:00:54.608Z,8.40
2023-03-11T14:03:22.064Z,8.40
2023-03-11T14:05:50.321Z,8.20
2023-03-11T14:08:29.868Z,8.20
2023-03-11T14:11:00.124Z,8.30
2023-03-11T14:13:30.499Z,8.20
2023-03-11T14:15:58.219Z,8.20
2023-03-11T14:18:43.494Z,8.20
2023-03-11T14:21:17.919Z,8.10
2023-03-11T14:23:48.986Z,8.00
2023-03-11T14:26:16.528Z,7.90
2023-03-11T14:28:45.233Z,7.90
2023-03-11T14:31:25.243Z,7.90
2023-03-11T14:34:04.700Z,7.90
2023-03-11T14:36:32.144Z,7.90
2023-03-11T14:38:59.798Z,8.00
2023-03-11T14:41:27.556Z,8.00
2023-03-11T14:43:55.060Z,8.10
2023-03-11T14:46:22.685Z,8.20
2023-03-11T14:48:50.948Z,8.20
2023-03-11T14:51:21.310Z,8.20
2023-03-11T14:54:07.186Z,8.20
2023-03-11T14:56:34.712Z,8.40
2023-03-11T14:59:09.652Z,8.40
2023-03-11T15:01:35.613Z,8.40
2023-03-11T15:04:08.817Z,8.40
2023-03-11T15:06:37.083Z,8.40
2023-03-11T15:09:14.073Z,8.30
2023-03-11T15:26:00.623Z,9.20
2023-03-11T15:28:28.109Z,9.40
2023-03-11T15:31:23.826Z,9.50
2023-03-11T15:33:52.120Z,9.50
2023-03-11T15:36:31.588Z,9.50
2023-03-11T15:39:32.677Z,9.30
2023-03-11T15:42:06.306Z,9.20
2023-03-11T15:44:36.576Z,9.10
2023-03-11T15:47:04.065Z,9.00
2023-03-11T15:49:31.598Z,8.90
2023-03-11T15:51:59.197Z,8.90
2023-03-11T15:54:26.715Z,8.80
2023-03-11T15:56:54.268Z,8.80
2023-03-11T15:59:21.772Z,9.10
2023-03-11T16:01:50.063Z,9.20
2023-03-11T16:04:17.748Z,9.20
2023-03-11T16:18:02.680Z,10.50
2023-03-11T16:20:30.230Z,10.70
2023-03-11T16:22:57.757Z,10.60
2023-03-11T16:25:28.465Z,10.50
2023-03-11T16:27:56.743Z,10.30
2023-03-11T16:30:25.064Z,10.20
2023-03-11T16:32:52.689Z,10.10
2023-03-11T16:35:20.169Z,10.00
2023-03-11T16:37:47.682Z,9.90
2023-03-11T16:40:15.251Z,9.70
2023-03-11T16:42:42.771Z,9.60
2023-03-11T16:45:10.320Z,9.40
2023-03-11T16:47:37.918Z,9.30
2023-03-11T16:50:05.526Z,9.10
2023-03-11T16:52:33.089Z,8.90
2023-03-11T16:57:30.916Z,8.50
2023-03-11T16:59:58.442Z,8.30
2023-03-11T17:02:25.962Z,8.40
2023-03-11T17:04:53.631Z,8.20
2023-03-11T17:07:21.106Z,8.10
2023-03-11T17:09:48.634Z,7.90
2023-03-11T17:12:16.995Z,7.70
2023-03-11T17:14:44.546Z,7.70
2023-03-11T17:17:12.044Z,7.60
2023-03-11T17:19:40.223Z,7.40
2023-03-11T17:22:07.752Z,7.30
2023-03-11T17:24:35.271Z,7.20
2023-03-11T17:27:02.849Z,7.10
2023-03-11T17:29:30.385Z,7.00
2023-03-11T17:31:57.941Z,7.20
2023-03-11T17:34:25.911Z,7.10
2023-03-11T17:36:53.433Z,7.00
2023-03-11T17:39:21.740Z,6.70
2023-03-11T17:41:49.696Z,6.70
2023-03-11T17:44:17.223Z,6.60
2023-03-11T17:46:45.592Z,6.40
2023-03-11T17:49:13.849Z,6.30
2023-03-11T17:51:41.377Z,6.30
2023-03-11T17:54:08.916Z,6.20
2023-03-11T17:56:36.910Z,6.10
2023-03-11T17:59:04.442Z,6.00
2023-03-11T18:01:32.021Z,5.90
2023-03-11T18:03:59.653Z,5.80
2023-03-11T18:06:27.115Z,5.80
2023-03-11T18:08:54.646Z,5.70
2023-03-11T18:11:25.430Z,5.60
2023-03-11T18:13:52.960Z,5.50
2023-03-11T18:16:21.322Z,5.40
2023-03-11T18:18:48.914Z,5.40
2023-03-11T18:21:19.113Z,5.30
2023-03-11T18:23:47.403Z,5.20
2023-03-11T18:26:14.990Z,5.10
2023-03-11T18:28:42.513Z,5.10
2023-03-11T18:31:10.051Z,5.10
2023-03-11T18:33:37.698Z,5.00
2023-03-11T18:36:11.058Z,4.90
2023-03-11T18:38:39.369Z,4.80
2023-03-11T18:41:06.931Z,4.80
2023-03-11T18:43:34.480Z,4.70
2023-03-11T18:46:02.026Z,4.70
2023-03-11T18:48:29.609Z,4.90
2023-03-11T18:50:57.131Z,4.80
2023-03-11T18:53:24.668Z,4.70
2023-03-11T18:55:52.222Z,4.60
2023-03-11T18:58:19.742Z,4.60
2023-03-11T19:00:47.346Z,4.50
2023-03-11T19:03:14.827Z,4.30
2023-03-11T19:05:50.962Z,4.50
2023-03-11T19:08:18.093Z,4.50
2023-03-11T19:10:46.433Z,4.30
2023-03-11T19:13:13.978Z,4.20
2023-03-11T19:15:41.621Z,4.20
2023-03-11T19:18:09.203Z,4.30
2023-03-11T19:20:36.727Z,4.20
2023-03-11T19:23:05.031Z,3.90
2023-03-11T19:25:32.631Z,3.90
2023-03-11T19:28:00.313Z,3.80
2023-03-11T19:30:27.832Z,3.70
2023-03-11T19:32:55.469Z,3.60
2023-03-11T19:35:22.929Z,3.50
2023-03-11T19:37:50.473Z,3.40
2023-03-11T19:40:18.049Z,3.30
2023-03-11T19:42:45.672Z,3.30
2023-03-11T19:45:13.165Z,3.20
2023-03-11T19:47:40.759Z,3.20
2023-03-11T19:50:08.396Z,3.20
2023-03-11T19:52:35.916Z,3.10
2023-03-11T19:55:03.491Z,3.10
2023-03-11T19:57:31.042Z,3.00
2023-03-11T19:59:59.349Z,2.90
2023-03-11T20:02:27.354Z,2.90
2023-03-11T20:04:55.657Z,2.90
2023-03-11T20:07:23.157Z,2.90
2023-03-11T20:09:50.721Z,2.80
2023-03-11T20:12:18.324Z,2.80
2023-03-11T20:14:45.813Z,2.80
2023-03-11T20:17:13.406Z,2.70
2023-03-11T20:19:40.973Z,2.70
2023-03-11T20:22:08.455Z,2.70
2023-03-11T20:24:36.786Z,2.60
2023-03-11T20:27:04.356Z,2.60
2023-03-11T20:29:31.907Z,2.60
2023-03-11T20:32:00.280Z,2.50
2023-03-11T20:34:27.770Z,2.50
2023-03-11T20:36:55.337Z,2.50
2023-03-11T20:39:22.890Z,2.50
2023-03-11T20:41:50.451Z,2.50
2023-03-11T20:44:17.902Z,2.40
2023-03-11T20:46:45.540Z,2.40
2023-03-11T20:49:13.046Z,2.40
2023-03-11T20:51:42.063Z,2.30
2023-03-11T20:54:09.009Z,2.30
2023-03-11T20:56:36.501Z,2.30
2023-03-11T20:59:05.372Z,2.20
2023-03-11T21:01:32.425Z,2.20
2023-03-11T21:04:00.019Z,2.20
2023-03-11T21:06:29.950Z,2.20
2023-03-11T21:08:57.463Z,2.40
2023-03-11T21:11:25.035Z,2.40
2023-03-11T21:13:52.594Z,2.30
2023-03-11T21:16:20.220Z,2.50
2023-03-11T21:18:49.466Z,2.80
2023-03-11T21:21:15.225Z,2.70
2023-03-11T21:23:42.866Z,2.50
2023-03-11T21:26:10.333Z,2.40
2023-03-11T21:28:37.887Z,2.30
2023-03-11T21:31:11.882Z,2.20
2023-03-11T21:33:39.325Z,2.20
2023-03-11T21:36:06.953Z,2.10
2023-03-11T21:38:35.660Z,2.00
2023-03-11T21:41:06.040Z,2.00
2023-03-11T21:43:34.326Z,2.00
2023-03-11T21:46:02.018Z,1.90
2023-03-11T21:48:29.442Z,1.90
2023-03-11T21:50:57.069Z,1.90
2023-03-11T21:53:25.347Z,1.90
2023-03-11T21:55:53.006Z,1.90
2023-03-11T21:58:20.492Z,1.90
2023-03-11T22:00:48.777Z,2.10
2023-03-11T22:03:16.275Z,2.10
2023-03-11T22:05:43.786Z,2.10
2023-03-11T22:08:12.145Z,2.00
2023-03-11T22:13:16.695Z,2.00
2023-03-11T22:15:44.169Z,2.20
2023-03-11T22:18:11.776Z,2.20
2023-03-11T22:20:42.272Z,2.40
2023-03-11T22:23:09.686Z,2.30
2023-03-11T22:25:37.221Z,2.30
2023-03-11T22:28:05.584Z,2.10
2023-03-11T22:30:33.137Z,2.10
2023-03-11T22:33:00.680Z,2.00
2023-03-11T22:35:28.253Z,2.20
2023-03-11T22:37:55.789Z,2.50
2023-03-11T22:40:23.319Z,2.50
2023-03-11T22:42:51.645Z,2.30
2023-03-11T22:45:19.187Z,2.20
2023-03-11T22:47:46.759Z,2.20
2023-03-11T22:50:14.712Z,2.10
2023-03-11T22:52:42.227Z,2.10
2023-03-11T22:55:10.691Z,2.00
2023-03-11T22:57:38.254Z,2.00
2023-03-11T23:00:05.777Z,2.00
2023-03-11T23:02:33.303Z,2.20
2023-03-11T23:05:01.656Z,2.10
2023-03-11T23:07:29.187Z,2.10
2023-03-11T23:09:56.725Z,2.00
2023-03-11T23:12:24.339Z,2.20
2023-03-11T23:14:52.649Z,2.40
2023-03-11T23:17:20.175Z,2.40
2023-03-11T23:19:48.529Z,2.20
2023-03-11T23:22:16.068Z,2.20
2023-03-11T23:24:43.597Z,2.10
2023-03-11T23:27:11.201Z,2.30
2023-03-11T23:29:38.757Z,2.30
2023-03-11T23:32:06.362Z,2.20
2023-03-11T23:34:34.695Z,2.10
2023-03-11T23:37:05.289Z,2.10
2023-03-11T23:39:29.772Z,2.10
2023-03-11T23:42:18.426Z,2.30
2023-03-11T23:44:31.534Z,2.30
2023-03-11T23:46:59.067Z,2.30
2023-03-11T23:49:26.672Z,2.20
2023-03-11T23:51:54.935Z,2.20
2023-03-11T23:54:22.462Z,2.20
2023-03-11T23:56:50.057Z,2.20
2023-03-11T23:59:17.585Z,2.20
